Time;durP1;ratioP1;P1;durP2;ratioP2;P2;SDS_P1;SDS_P2;PMS_P1;PMS_P2;Temp;Humidity;BMP_temperature;BMP_pressure;BME280_temperature;BME280_humidity;BME280_pressure;Samples;Min_cycle;Max_cycle;Signal;HPM_P1;HPM_P2
2021/03/14 00:00:54;0.00;0.00;0.62;0.00;0.00;0.62;;;;;9.20;1.00;;;;;;2264954;61;1014;-87
2021/03/14 00:03:24;7857.00;0.03;14.24;0.00;0.00;0.62;;;;;9.40;1.00;;;;;;2265131;61;997;-85
2021/03/14 00:05:52;0.00;0.00;0.62;0.00;0.00;0.62;;;;;9.50;1.00;;;;;;2265085;61;1928;-86
2021/03/14 00:08:21;0.00;0.00;0.62;0.00;0.00;0.62;;;;;9.60;1.00;;;;;;2261804;61;1057;-86
2021/03/14 00:10:51;0.00;0.00;0.62;0.00;0.00;0.62;;;;;10.00;1.00;;;;;;2265857;61;969;-86
2021/03/14 00:13:19;0.00;0.00;0.62;0.00;0.00;0.62;;;;;9.80;1.00;;;;;;2265809;61;1028;-86
2021/03/14 00:15:46;37988.00;0.13;66.41;0.00;0.00;0.62;;;;;9.80;1.00;;;;;;2272482;61;1475;-86
2021/03/14 00:18:17;0.00;0.00;0.62;0.00;0.00;0.62;;;;;9.90;1.00;;;;;;2264210;60;998;-86
2021/03/14 00:20:43;12898.00;0.04;22.97;0.00;0.00;0.62;;;;;9.40;1.00;;;;;;2281040;60;996;-88
2021/03/14 00:23:13;0.00;0.00;0.62;0.00;0.00;0.62;;;;;9.20;1.00;;;;;;2277235;61;1023;-88
2021/03/14 00:25:39;12313.00;0.04;21.96;0.00;0.00;0.62;;;;;9.00;1.00;;;;;;2272377;61;2017;-89
2021/03/14 00:28:06;27867.00;0.09;48.89;0.00;0.00;0.62;;;;;8.80;1.00;;;;;;2272577;61;1025;-87
2021/03/14 00:30:33;0.00;0.00;0.62;0.00;0.00;0.62;;;;;8.60;1.00;;;;;;2272477;61;1063;-88
2021/03/14 00:33:01;86101.00;0.29;149.57;0.00;0.00;0.62;;;;;8.50;1.00;;;;;;2269083;61;1033;-86
2021/03/14 00:35:27;22728.00;0.08;39.99;0.00;0.00;0.62;;;;;8.90;1.00;;;;;;2269021;61;1390;-89
2021/03/14 00:37:54;68831.00;0.23;119.74;0.00;0.00;0.62;;;;;9.10;1.00;;;;;;2260296;61;1006;-87
2021/03/14 00:40:23;38335.00;0.13;67.01;0.00;0.00;0.62;;;;;9.30;1.00;;;;;;2267467;61;1029;-87
2021/03/14 00:42:50;32251.00;0.11;56.48;0.00;0.00;0.62;;;;;9.50;1.00;;;;;;2265459;61;978;-86
2021/03/14 00:45:18;32733.00;0.11;57.31;0.00;0.00;0.62;;;;;9.80;1.00;;;;;;2264217;61;1923;-87
2021/03/14 00:47:44;27065.00;0.09;47.50;0.00;0.00;0.62;;;;;9.90;1.00;;;;;;2263873;61;1044;-87
2021/03/14 00:50:16;6003.00;0.02;11.02;0.00;0.00;0.62;;;;;9.90;1.00;;;;;;2264312;61;1041;-87
2021/03/14 00:52:43;96441.00;0.32;167.43;29387.00;0.10;51.52;;;;;10.10;1.00;;;;;;2260897;61;1050;-88
2021/03/14 00:55:10;37654.00;0.13;65.83;0.00;0.00;0.62;;;;;9.50;1.00;;;;;;2262282;61;1345;-87
2021/03/14 00:57:37;0.00;0.00;0.62;0.00;0.00;0.62;;;;;9.10;1.00;;;;;;2265693;61;957;-87
2021/03/14 01:00:05;1628.00;0.01;3.44;0.00;0.00;0.62;;;;;9.50;1.00;;;;;;2269053;61;969;-87
2021/03/14 01:02:31;4177.00;0.01;7.86;0.00;0.00;0.62;;;;;9.70;1.00;;;;;;2273761;60;1001;-87
2021/03/14 01:04:58;14375.00;0.05;25.53;0.00;0.00;0.62;;;;;10.00;1.00;;;;;;2280823;60;1996;-88
2021/03/14 01:07:25;169648.00;0.57;293.66;53155.00;0.18;92.64;;;;;9.90;1.00;;;;;;2280740;60;1056;-88
2021/03/14 01:09:52;46132.00;0.15;80.50;0.00;0.00;0.62;;;;;9.70;1.00;;;;;;2277119;60;994;-88
2021/03/14 01:12:18;8290.00;0.03;14.99;0.00;0.00;0.62;;;;;9.50;1.00;;;;;;2273511;60;1019;-87
2021/03/14 01:14:45;22730.00;0.08;40.00;0.00;0.00;0.62;;;;;9.30;1.00;;;;;;2280793;60;1376;-87
2021/03/14 01:17:11;0.00;0.00;0.62;0.00;0.00;0.62;;;;;8.80;1.00;;;;;;2280220;60;956;-87
2021/03/14 01:19:38;0.00;0.00;0.62;0.00;0.00;0.62;;;;;8.40;1.00;;;;;;2273899;61;1144;-86
2021/03/14 01:22:04;0.00;0.00;0.62;0.00;0.00;0.62;;;;;8.70;1.00;;;;;;2272323;61;944;-87
2021/03/14 01:24:32;0.00;0.00;0.62;0.00;0.00;0.62;;;;;9.00;1.00;;;;;;2265597;61;1999;-87
2021/03/14 01:26:58;0.00;0.00;0.62;0.00;0.00;0.62;;;;;9.20;1.00;;;;;;2262336;61;1011;-87
2021/03/14 01:29:25;19313.00;0.06;34.08;0.00;0.00;0.62;;;;;8.80;1.00;;;;;;2268925;61;1003;-87
2021/03/14 01:31:51;0.00;0.00;0.62;0.00;0.00;0.62;;;;;8.70;1.00;;;;;;2265656;61;1095;-86
2021/03/14 01:34:18;0.00;0.00;0.62;0.00;0.00;0.62;;;;;8.80;1.00;;;;;;2264138;61;1482;-87
2021/03/14 01:36:44;0.00;0.00;0.62;0.00;0.00;0.62;;;;;8.90;1.00;;;;;;2264289;61;1074;-87
2021/03/14 01:39:11;114985.00;0.38;199.43;0.00;0.00;0.62;;;;;9.30;1.00;;;;;;2264648;61;944;-88
2021/03/14 01:41:38;5493.00;0.02;10.14;0.00;0.00;0.62;;;;;9.40;1.00;;;;;;2264896;61;967;-87
2021/03/14 01:44:06;0.00;0.00;0.62;0.00;0.00;0.62;;;;;9.50;1.00;;;;;;2268230;61;1931;-87
2021/03/14 01:46:33;0.00;0.00;0.62;0.00;0.00;0.62;;;;;9.70;1.00;;;;;;2264083;61;958;-87
2021/03/14 01:49:00;0.00;0.00;0.62;0.00;0.00;0.62;;;;;10.10;1.00;;;;;;2260820;61;1023;-87
2021/03/14 01:51:27;0.00;0.00;0.62;0.00;0.00;0.62;;;;;9.70;1.00;;;;;;2260572;61;1709;-88
2021/03/14 01:53:54;0.00;0.00;0.62;0.00;0.00;0.62;;;;;9.70;1.00;;;;;;2264049;61;1210;-88
2021/03/14 01:56:20;24389.00;0.08;42.87;0.00;0.00;0.62;;;;;9.80;1.00;;;;;;2264173;61;1017;-87
2021/03/14 01:58:49;55886.00;0.19;97.36;0.00;0.00;0.62;;;;;9.40;1.00;;;;;;2263976;61;1069;-87
2021/03/14 02:01:17;96981.00;0.32;168.36;6670.00;0.02;12.18;;;;;8.80;1.00;;;;;;2264046;61;1005;-87
2021/03/14 02:03:44;34995.00;0.12;61.23;0.00;0.00;0.62;;;;;8.10;1.00;;;;;;2264097;61;1401;-87
2021/03/14 02:06:11;0.00;0.00;0.62;0.00;0.00;0.62;;;;;7.70;1.00;;;;;;2264000;61;2018;-87
2021/03/14 02:08:38;4089.00;0.01;7.71;0.00;0.00;0.62;;;;;7.80;1.00;;;;;;2259461;61;994;-87
2021/03/14 02:11:05;5421.00;0.02;10.02;0.00;0.00;0.62;;;;;7.90;1.00;;;;;;2264479;61;975;-87
2021/03/14 02:13:36;0.00;0.00;0.62;0.00;0.00;0.62;;;;;8.00;1.00;;;;;;2267548;61;1404;-87
2021/03/14 02:16:09;18799.00;0.06;33.19;0.00;0.00;0.62;;;;;8.40;1.00;;;;;;2269469;61;1051;-86
2021/03/14 02:18:41;0.00;0.00;0.62;0.00;0.00;0.62;;;;;8.20;1.00;;;;;;2272869;61;1004;-88
2021/03/14 02:21:09;3621.00;0.01;6.90;0.00;0.00;0.62;;;;;8.30;1.00;;;;;;2272747;61;1070;-89
2021/03/14 02:23:45;0.00;0.00;0.62;0.00;0.00;0.62;;;;;8.40;1.00;;;;;;2270713;61;1428;-88
2021/03/14 02:26:17;0.00;0.00;0.62;0.00;0.00;0.62;;;;;8.80;1.00;;;;;;2264567;61;1934;-88
2021/03/14 02:28:47;0.00;0.00;0.62;0.00;0.00;0.62;;;;;9.30;1.00;;;;;;2272780;61;1001;-88
2021/03/14 02:31:17;0.00;0.00;0.62;0.00;0.00;0.62;;;;;9.20;1.00;;;;;;2280733;60;939;-87
2021/03/14 02:33:44;3026.00;0.01;5.86;0.00;0.00;0.62;;;;;9.30;1.00;;;;;;2280568;60;1382;-87
2021/03/14 02:36:13;0.00;0.00;0.62;0.00;0.00;0.62;;;;;8.20;1.00;;;;;;2273548;60;1003;-87
2021/03/14 02:38:43;0.00;0.00;0.62;0.00;0.00;0.62;;;;;8.10;1.00;;;;;;2271996;61;975;-87
2021/03/14 02:41:11;36085.00;0.12;63.11;0.00;0.00;0.62;;;;;8.80;1.00;;;;;;2272043;61;1032;-87
2021/03/14 02:48:49;85855.00;0.29;149.15;18081.00;0.06;31.95;;;;;9.50;1.00;;;;;;2280017;60;1174;-87
2021/03/14 02:51:16;14572.00;0.05;25.87;0.00;0.00;0.62;;;;;9.90;1.00;;;;;;2278885;60;1330;-87
2021/03/14 02:53:46;0.00;0.00;0.62;0.00;0.00;0.62;;;;;9.30;1.00;;;;;;2277562;60;1478;-87
2021/03/14 02:56:13;0.00;0.00;0.62;0.00;0.00;0.62;;;;;8.50;1.00;;;;;;2274233;60;1013;-87
2021/03/14 02:58:41;0.00;0.00;0.62;0.00;0.00;0.62;;;;;8.40;1.00;;;;;;2277588;60;985;-86
2021/03/14 03:01:10;0.00;0.00;0.62;0.00;0.00;0.62;;;;;8.20;1.00;;;;;;2277550;60;1040;-87
2021/03/14 03:03:38;0.00;0.00;0.62;0.00;0.00;0.62;;;;;8.40;1.00;;;;;;2277470;61;1438;-87
2021/03/14 03:06:06;48097.00;0.16;83.89;0.00;0.00;0.62;;;;;8.10;1.00;;;;;;2277515;61;1932;-87
2021/03/14 03:08:34;0.00;0.00;0.62;0.00;0.00;0.62;;;;;8.00;1.00;;;;;;2277559;61;996;-87
2021/03/14 03:11:05;14323.00;0.05;25.44;0.00;0.00;0.62;;;;;8.00;1.00;;;;;;2277531;60;1024;-87
2021/03/14 03:13:34;0.00;0.00;0.62;0.00;0.00;0.62;;;;;8.10;1.00;;;;;;2274240;60;1531;-86
2021/03/14 03:16:04;85687.00;0.29;148.86;0.00;0.00;0.62;;;;;8.50;1.00;;;;;;2284671;60;1000;-86
2021/03/14 03:18:34;27537.00;0.09;48.32;0.00;0.00;0.62;;;;;8.60;1.00;;;;;;2277512;61;959;-87
2021/03/14 03:21:00;0.00;0.00;0.62;0.00;0.00;0.62;;;;;8.30;1.00;;;;;;2277446;60;1011;-88
2021/03/14 03:23:29;13514.00;0.05;24.04;0.00;0.00;0.62;;;;;7.80;1.00;;;;;;2277441;61;1325;-87
2021/03/14 03:25:55;48775.00;0.16;85.07;0.00;0.00;0.62;;;;;7.90;1.00;;;;;;2277445;61;2009;-87
2021/03/14 03:28:22;0.00;0.00;0.62;0.00;0.00;0.62;;;;;8.10;1.00;;;;;;2284639;60;1023;-87
2021/03/14 03:30:48;0.00;0.00;0.62;0.00;0.00;0.62;;;;;8.50;1.00;;;;;;2277439;60;966;-87
2021/03/14 03:33:15;443.00;0.00;1.39;0.00;0.00;0.62;;;;;8.60;1.00;;;;;;2277459;60;948;-88
2021/03/14 03:35:41;25812.00;0.09;45.33;0.00;0.00;0.62;;;;;8.60;1.00;;;;;;2271630;61;1319;-88
2021/03/14 03:38:09;0.00;0.00;0.62;0.00;0.00;0.62;;;;;8.60;1.00;;;;;;2271922;61;1009;-88
2021/03/14 03:40:37;0.00;0.00;0.62;0.00;0.00;0.62;;;;;8.60;1.00;;;;;;2271840;61;1015;-88
2021/03/14 03:43:10;0.00;0.00;0.62;0.00;0.00;0.62;;;;;8.60;1.00;;;;;;2267805;61;967;-87
2021/03/14 03:45:40;19081.00;0.06;33.68;0.00;0.00;0.62;;;;;8.40;1.00;;;;;;2261120;61;2008;-87
2021/03/14 03:48:10;0.00;0.00;0.62;0.00;0.00;0.62;;;;;8.80;1.00;;;;;;2261127;61;1063;-87
2021/03/14 03:50:38;0.00;0.00;0.62;0.00;0.00;0.62;;;;;8.80;1.00;;;;;;2264344;61;982;-86
2021/03/14 03:53:05;0.00;0.00;0.62;0.00;0.00;0.62;;;;;8.70;1.00;;;;;;2265530;61;948;-87
2021/03/14 03:55:33;20279.00;0.07;35.75;0.00;0.00;0.62;;;;;8.50;1.00;;;;;;2263674;61;1273;-88
2021/03/14 03:58:03;0.00;0.00;0.62;0.00;0.00;0.62;;;;;8.30;1.00;;;;;;2257122;61;994;-88
2021/03/14 04:00:30;1560.00;0.01;3.32;0.00;0.00;0.62;;;;;8.10;1.00;;;;;;2262133;61;1031;-88
2021/03/14 04:03:00;0.00;0.00;0.62;0.00;0.00;0.62;;;;;7.90;1.00;;;;;;2265186;61;1101;-87
2021/03/14 04:05:28;26180.00;0.09;45.97;0.00;0.00;0.62;;;;;7.90;1.00;;;;;;2265037;61;1999;-87
2021/03/14 04:07:56;0.00;0.00;0.62;0.00;0.00;0.62;;;;;7.80;1.00;;;;;;2268482;61;989;-87
2021/03/14 04:10:24;0.00;0.00;0.62;0.00;0.00;0.62;;;;;8.10;1.00;;;;;;2269180;61;965;-88
2021/03/14 04:12:53;0.00;0.00;0.62;0.00;0.00;0.62;;;;;8.70;1.00;;;;;;2277606;60;1023;-87
2021/03/14 04:15:24;25207.00;0.08;44.29;0.00;0.00;0.62;;;;;8.60;1.00;;;;;;2277375;61;1338;-87
2021/03/14 04:17:53;0.00;0.00;0.62;0.00;0.00;0.62;;;;;8.50;1.00;;;;;;2273969;61;969;-87
2021/03/14 04:20:22;0.00;0.00;0.62;0.00;0.00;0.62;;;;;8.30;1.00;;;;;;2275792;61;994;-88
2021/03/14 04:22:54;0.00;0.00;0.62;0.00;0.00;0.62;;;;;8.40;1.00;;;;;;2269113;61;1019;-87
2021/03/14 04:25:21;0.00;0.00;0.62;0.00;0.00;0.62;;;;;8.90;1.00;;;;;;2269075;61;2002;-87
2021/03/14 04:27:50;3100.00;0.01;5.99;0.00;0.00;0.62;;;;;8.90;1.00;;;;;;2275858;61;1167;-88
2021/03/14 04:30:18;0.00;0.00;0.62;0.00;0.00;0.62;;;;;9.60;1.00;;;;;;2269129;61;1005;-87
2021/03/14 04:32:46;0.00;0.00;0.62;0.00;0.00;0.62;;;;;9.80;1.00;;;;;;2275895;61;1040;-86
2021/03/14 04:35:14;1407.00;0.00;3.06;0.00;0.00;0.62;;;;;10.40;1.00;;;;;;2269079;61;1456;-87
2021/03/14 04:37:41;0.00;0.00;0.62;0.00;0.00;0.62;;;;;10.30;1.00;;;;;;2270961;60;958;-86
2021/03/14 04:40:10;0.00;0.00;0.62;0.00;0.00;0.62;;;;;10.00;1.00;;;;;;2275773;61;1080;-86
2021/03/14 04:42:40;0.00;0.00;0.62;0.00;0.00;0.62;;;;;10.10;1.00;;;;;;2269127;61;1012;-86
2021/03/14 04:45:08;4004.00;0.01;7.56;0.00;0.00;0.62;;;;;10.10;1.00;;;;;;2265757;61;2000;-87
2021/03/14 04:47:35;0.00;0.00;0.62;0.00;0.00;0.62;;;;;10.40;1.00;;;;;;2263408;61;1060;-87
2021/03/14 04:50:05;0.00;0.00;0.62;0.00;0.00;0.62;;;;;9.90;1.00;;;;;;2264296;61;1042;-86
2021/03/14 04:52:32;0.00;0.00;0.62;0.00;0.00;0.62;;;;;9.30;1.00;;;;;;2260968;61;979;-87
2021/03/14 04:55:00;0.00;0.00;0.62;0.00;0.00;0.62;;;;;9.40;1.00;;;;;;2260962;61;1453;-87
2021/03/14 04:57:30;9422.00;0.03;16.95;0.00;0.00;0.62;;;;;9.90;1.00;;;;;;2265919;61;1006;-89
2021/03/14 04:59:59;742.00;0.00;1.91;0.00;0.00;0.62;;;;;9.20;1.00;;;;;;2271960;61;1002;-87
2021/03/14 05:02:28;0.00;0.00;0.62;0.00;0.00;0.62;;;;;9.10;1.00;;;;;;2272471;61;1011;-87
2021/03/14 05:04:57;25321.00;0.08;44.48;0.00;0.00;0.62;;;;;9.30;1.00;;;;;;2271517;60;1913;-87
2021/03/14 05:07:25;0.00;0.00;0.62;0.00;0.00;0.62;;;;;8.90;1.00;;;;;;2274655;60;994;-87
2021/03/14 05:09:52;0.00;0.00;0.62;0.00;0.00;0.62;;;;;8.60;1.00;;;;;;2281307;61;999;-87
2021/03/14 05:12:19;41562.00;0.14;72.59;0.00;0.00;0.62;;;;;8.70;1.00;;;;;;2277937;60;972;-87
2021/03/14 05:14:48;0.00;0.00;0.62;0.00;0.00;0.62;;;;;8.90;1.00;;;;;;2277881;60;1449;-87
2021/03/14 05:17:15;0.00;0.00;0.62;0.00;0.00;0.62;;;;;9.20;1.00;;;;;;2276266;61;987;-88
2021/03/14 05:19:42;0.00;0.00;0.62;0.00;0.00;0.62;;;;;9.50;1.00;;;;;;2266351;61;983;-88
2021/03/14 05:22:09;0.00;0.00;0.62;0.00;0.00;0.62;;;;;9.90;1.00;;;;;;2269692;61;934;-88
2021/03/14 05:24:40;0.00;0.00;0.62;0.00;0.00;0.62;;;;;9.20;1.00;;;;;;2276368;61;1973;-87
2021/03/14 05:27:09;489.00;0.00;1.47;0.00;0.00;0.62;;;;;9.10;1.00;;;;;;2269690;61;934;-87
2021/03/14 05:29:36;18891.00;0.06;33.35;0.00;0.00;0.62;;;;;8.90;1.00;;;;;;2276339;61;1012;-88
2021/03/14 05:32:03;0.00;0.00;0.62;0.00;0.00;0.62;;;;;8.10;1.00;;;;;;2276431;61;1034;-88
2021/03/14 05:34:30;0.00;0.00;0.62;0.00;0.00;0.62;;;;;7.60;1.00;;;;;;2271027;60;1328;-87
2021/03/14 05:36:56;0.00;0.00;0.62;0.00;0.00;0.62;;;;;7.50;1.00;;;;;;2284975;60;1025;-87
2021/03/14 05:39:24;0.00;0.00;0.62;0.00;0.00;0.62;;;;;7.70;1.00;;;;;;2274482;60;1020;-87
2021/03/14 05:41:51;7915.00;0.03;14.34;0.00;0.00;0.62;;;;;7.80;1.00;;;;;;2284997;60;1113;-88
2021/03/14 05:44:18;39324.00;0.13;68.72;0.00;0.00;0.62;;;;;8.30;1.00;;;;;;2274438;60;1911;-87
2021/03/14 05:46:45;46551.00;0.16;81.22;0.00;0.00;0.62;;;;;8.00;1.00;;;;;;2274436;60;974;-87
2021/03/14 05:49:12;0.00;0.00;0.62;0.00;0.00;0.62;;;;;8.30;1.00;;;;;;2284904;60;1076;-88
2021/03/14 05:51:42;0.00;0.00;0.62;0.00;0.00;0.62;;;;;8.70;1.00;;;;;;2281112;61;1002;-87
2021/03/14 05:54:11;17303.00;0.06;30.60;0.00;0.00;0.62;;;;;9.20;1.00;;;;;;2274393;60;1353;-87
2021/03/14 05:56:41;0.00;0.00;0.62;0.00;0.00;0.62;;;;;9.40;1.00;;;;;;2280251;61;1010;-89
2021/03/14 05:59:13;0.00;0.00;0.62;0.00;0.00;0.62;;;;;9.50;1.00;;;;;;2280202;61;1005;-88
2021/03/14 06:01:45;0.00;0.00;0.62;0.00;0.00;0.62;;;;;9.10;1.00;;;;;;2280302;61;1001;-89
2021/03/14 06:04:16;23987.00;0.08;42.17;0.00;0.00;0.62;;;;;8.50;1.00;;;;;;2280276;61;1275;-87
2021/03/14 06:06:42;3542.00;0.01;6.76;0.00;0.00;0.62;;;;;8.20;1.00;;;;;;2276894;61;1025;-88
2021/03/14 06:09:11;0.00;0.00;0.62;0.00;0.00;0.62;;;;;8.50;1.00;;;;;;2280317;61;961;-87
2021/03/14 06:11:38;17821.00;0.06;31.50;0.00;0.00;0.62;;;;;8.40;1.00;;;;;;2276096;61;1064;-87
2021/03/14 06:14:05;0.00;0.00;0.62;0.00;0.00;0.62;;;;;8.80;1.00;;;;;;2270459;61;1263;-88
2021/03/14 06:16:32;12997.00;0.04;23.14;0.00;0.00;0.62;;;;;8.60;1.00;;;;;;2276085;61;1075;-88
2021/03/14 06:18:59;22289.00;0.07;39.23;0.00;0.00;0.62;;;;;8.50;1.00;;;;;;2269407;61;998;-87
2021/03/14 06:21:27;62664.00;0.21;109.08;0.00;0.00;0.62;;;;;8.70;1.00;;;;;;2269435;61;989;-87
2021/03/14 06:23:58;0.00;0.00;0.62;0.00;0.00;0.62;;;;;8.60;1.00;;;;;;2269440;61;1456;-87
2021/03/14 06:26:41;0.00;0.00;0.62;0.00;0.00;0.62;;;;;8.30;1.00;;;;;;2269421;61;2021;-88
2021/03/14 06:29:28;215255.00;0.72;372.18;83340.00;0.28;144.81;;;;;8.20;1.00;;;;;;2270547;61;1033;-89
2021/03/14 06:31:57;357204.00;1.19;616.24;93391.00;0.31;162.16;;;;;7.90;1.00;;;;;;2257338;61;1020;-88
2021/03/14 06:34:30;444777.00;1.48;766.80;89087.00;0.30;154.73;;;;;7.90;1.00;;;;;;2262341;61;1368;-87
2021/03/14 06:36:58;315410.00;1.05;544.41;79820.00;0.27;138.73;;;;;8.70;1.00;;;;;;2263974;61;989;-89
2021/03/14 06:39:28;221883.00;0.74;383.58;82385.00;0.27;143.16;;;;;9.00;1.00;;;;;;2254111;61;1064;-88
2021/03/14 06:41:56;199380.00;0.66;344.86;84054.00;0.28;146.04;;;;;9.10;1.00;;;;;;2263862;61;998;-88
2021/03/14 06:44:25;170140.00;0.57;294.51;90554.00;0.30;157.26;;;;;9.70;1.00;;;;;;2257253;61;1998;-87
2021/03/14 06:46:52;236135.00;0.79;408.10;81350.00;0.27;141.37;;;;;9.70;1.00;;;;;;2255888;61;998;-88
2021/03/14 06:49:22;296920.00;0.99;512.63;85913.00;0.29;149.25;;;;;9.50;1.00;;;;;;2252585;61;952;-87
2021/03/14 06:51:50;166951.00;0.56;289.01;85379.00;0.28;148.33;;;;;9.60;1.00;;;;;;2251890;61;935;-86
2021/03/14 06:54:28;270507.00;0.90;467.22;69951.00;0.23;121.68;;;;;9.90;1.00;;;;;;2248637;61;1342;-86
2021/03/14 06:57:15;472763.00;1.58;814.94;102172.00;0.34;177.32;;;;;10.70;1.00;;;;;;2251922;61;1134;-85
2021/03/14 06:59:43;319920.00;1.07;552.16;0.00;0.00;0.62;;;;;10.40;1.00;;;;;;2243780;61;1126;-88
2021/03/14 07:02:12;485797.00;1.62;837.37;17698.00;0.06;31.28;;;;;10.10;1.00;;;;;;2243677;61;1065;-90
2021/03/14 07:04:45;372857.00;1.24;643.15;35382.00;0.12;61.90;;;;;9.70;1.00;;;;;;2243025;62;2001;-86
2021/03/14 07:07:20;130855.00;0.44;226.80;0.00;0.00;0.62;;;;;10.10;1.00;;;;;;2247921;62;1042;-86
2021/03/14 07:09:53;26115.00;0.09;45.86;0.00;0.00;0.62;;;;;10.40;1.00;;;;;;2257291;61;1072;-85
2021/03/14 07:12:31;38852.00;0.13;67.90;0.00;0.00;0.62;;;;;11.00;1.00;;;;;;2255785;61;947;-86
2021/03/14 07:15:11;98707.00;0.33;171.34;0.00;0.00;0.62;;;;;10.90;1.00;;;;;;2255836;61;1335;-84
2021/03/14 07:17:38;265713.00;0.89;458.97;69217.00;0.23;120.41;;;;;11.20;1.00;;;;;;2255867;61;959;-86
2021/03/14 07:20:10;0.00;0.00;0.62;0.00;0.00;0.62;;;;;10.80;1.00;;;;;;2255699;61;971;-86
2021/03/14 07:22:36;0.00;0.00;0.62;0.00;0.00;0.62;;;;;10.90;1.00;;;;;;2257651;61;1054;-86
2021/03/14 07:25:05;0.00;0.00;0.62;0.00;0.00;0.62;;;;;11.10;1.00;;;;;;2259721;61;2022;-87
2021/03/14 07:27:32;175244.00;0.58;303.30;0.00;0.00;0.62;;;;;11.00;1.00;;;;;;2259764;61;915;-86
2021/03/14 07:30:00;139952.00;0.47;242.49;0.00;0.00;0.62;;;;;10.40;1.00;;;;;;2263092;61;962;-87
2021/03/14 07:32:28;0.00;0.00;0.62;0.00;0.00;0.62;;;;;10.80;1.00;;;;;;2268472;61;1039;-85
2021/03/14 07:34:54;0.00;0.00;0.62;0.00;0.00;0.62;;;;;10.80;1.00;;;;;;2264913;61;1455;-85
2021/03/14 07:39:50;157478.00;0.52;272.69;0.00;0.00;0.62;;;;;10.10;1.00;;;;;;2282090;61;1424;-88
2021/03/14 07:42:20;147808.00;0.49;256.03;34705.00;0.12;60.73;;;;;9.70;1.00;;;;;;2280435;61;948;-88
2021/03/14 07:44:47;45161.00;0.15;78.82;0.00;0.00;0.62;;;;;9.40;1.00;;;;;;2274978;61;2005;-89
2021/03/14 07:47:16;52598.00;0.18;91.68;0.00;0.00;0.62;;;;;9.30;1.00;;;;;;2280444;61;992;-88
2021/03/14 07:49:48;95434.00;0.32;165.69;0.00;0.00;0.62;;;;;9.60;1.00;;;;;;2280292;61;925;-89
2021/03/14 07:52:21;154476.00;0.51;267.52;0.00;0.00;0.62;;;;;10.00;1.00;;;;;;2279137;61;922;-86
2021/03/14 07:54:51;148306.00;0.49;256.89;0.00;0.00;0.62;;;;;10.30;1.00;;;;;;2387534;40;1909;31
2021/03/14 07:57:22;750496.00;2.50;1294.92;0.00;0.00;0.62;;;;;11.30;1.00;;;;;;2272672;61;1363;-84
2021/03/14 07:59:48;0.00;0.00;0.62;0.00;0.00;0.62;;;;;11.70;1.00;;;;;;2271711;61;1044;-86
2021/03/14 08:02:30;0.00;0.00;0.62;0.00;0.00;0.62;;;;;11.60;1.00;;;;;;2268272;61;1029;-87
2021/03/14 08:04:59;145016.00;0.48;251.22;18175.00;0.06;32.11;;;;;11.30;1.00;;;;;;2271515;61;1990;-86
2021/03/14 08:07:48;0.00;0.00;0.62;0.00;0.00;0.62;;;;;11.40;1.00;;;;;;2271586;61;924;-86
2021/03/14 08:10:36;57818.00;0.19;100.70;0.00;0.00;0.62;;;;;11.50;1.00;;;;;;2263637;61;971;-86
2021/03/14 08:13:02;36038.00;0.12;63.03;0.00;0.00;0.62;;;;;10.90;1.00;;;;;;2263617;61;1082;-87
2021/03/14 08:15:30;74674.00;0.25;129.84;0.00;0.00;0.62;;;;;10.40;1.00;;;;;;2260033;61;1317;-85
2021/03/14 08:17:59;114655.00;0.38;198.86;0.00;0.00;0.62;;;;;10.30;1.00;;;;;;2259912;61;1038;-86
2021/03/14 08:20:44;181402.00;0.60;313.90;0.00;0.00;0.62;;;;;10.50;1.00;;;;;;2263445;61;1043;-87
2021/03/14 08:23:11;22432.00;0.07;39.48;0.00;0.00;0.62;;;;;10.50;1.00;;;;;;2268323;61;1615;-87
2021/03/14 08:25:41;84475.00;0.28;146.77;0.00;0.00;0.62;;;;;11.10;1.00;;;;;;2268314;61;2000;-86
2021/03/14 08:28:33;120978.00;0.40;209.77;0.00;0.00;0.62;;;;;11.00;1.00;;;;;;2272114;61;1107;-86
2021/03/14 08:31:01;16216.00;0.05;28.72;0.00;0.00;0.62;;;;;10.90;1.00;;;;;;2276715;61;1172;-85
2021/03/14 08:33:33;109124.00;0.36;189.32;0.00;0.00;0.62;;;;;10.60;1.00;;;;;;2276600;61;1691;-86
2021/03/14 08:36:02;215805.00;0.72;373.13;75256.00;0.25;130.84;;;;;10.60;1.00;;;;;;2276759;61;1125;-85
2021/03/14 08:38:31;59436.00;0.20;103.50;0.00;0.00;0.62;;;;;10.80;1.00;;;;;;2276433;61;907;-84
2021/03/14 08:41:25;117323.00;0.39;203.46;0.00;0.00;0.62;;;;;11.60;1.00;;;;;;2276370;61;1068;-83
2021/03/14 08:43:54;26099.00;0.09;45.83;0.00;0.00;0.62;;;;;12.00;1.00;;;;;;2276274;61;1442;-84
2021/03/14 08:46:21;31703.00;0.11;55.53;0.00;0.00;0.62;;;;;11.70;1.00;;;;;;2276724;61;1989;-87
2021/03/14 08:48:48;75037.00;0.25;130.46;0.00;0.00;0.62;;;;;11.60;1.00;;;;;;2273044;61;975;-87
2021/03/14 08:51:14;0.00;0.00;0.62;0.00;0.00;0.62;;;;;11.60;1.00;;;;;;2273154;61;950;-87
2021/03/14 08:53:41;161966.00;0.54;280.43;27831.00;0.09;48.83;;;;;11.40;1.00;;;;;;2268222;61;1396;-87
2021/03/14 08:56:11;670.00;0.00;1.78;0.00;0.00;0.62;;;;;11.30;1.00;;;;;;2260147;61;973;-86
2021/03/14 08:58:38;45055.00;0.15;78.63;0.00;0.00;0.62;;;;;10.90;1.00;;;;;;2260183;61;1062;-87
2021/03/14 09:01:09;0.00;0.00;0.62;0.00;0.00;0.62;;;;;10.90;1.00;;;;;;2260132;61;1071;-87
2021/03/14 09:03:43;14304.00;0.05;25.41;0.00;0.00;0.62;;;;;10.00;1.00;;;;;;2253476;61;1340;-87
2021/03/14 09:06:31;0.00;0.00;0.62;0.00;0.00;0.62;;;;;9.50;1.00;;;;;;2256084;61;1926;-86
2021/03/14 09:08:59;0.00;0.00;0.62;0.00;0.00;0.62;;;;;10.00;1.00;;;;;;2230578;62;1028;-87
2021/03/14 09:11:39;0.00;0.00;0.62;0.00;0.00;0.62;;;;;10.20;1.00;;;;;;2240065;61;1000;-88
2021/03/14 09:14:20;157022.00;0.52;271.91;0.00;0.00;0.62;;;;;10.50;1.00;;;;;;2240208;62;1398;-86
2021/03/14 09:16:50;13363.00;0.04;23.78;0.00;0.00;0.62;;;;;11.00;1.00;;;;;;2232474;62;1002;-86
2021/03/14 09:19:30;26058.00;0.09;45.76;0.00;0.00;0.62;;;;;11.10;1.00;;;;;;2232527;62;1026;-87
2021/03/14 09:21:59;150.00;0.00;0.88;0.00;0.00;0.62;;;;;10.40;1.00;;;;;;2228495;62;978;-87
2021/03/14 09:24:28;0.00;0.00;0.62;0.00;0.00;0.62;;;;;9.90;1.00;;;;;;2229971;62;1331;-86
2021/03/14 09:27:00;7953.00;0.03;14.40;0.00;0.00;0.62;;;;;10.20;1.00;;;;;;2233091;62;2012;-86
2021/03/14 09:29:49;45776.00;0.15;79.88;0.00;0.00;0.62;;;;;11.00;1.00;;;;;;2229871;62;1060;-86
2021/03/14 09:32:18;25511.00;0.09;44.81;0.00;0.00;0.62;;;;;10.40;1.00;;;;;;2232545;62;1026;-86
2021/03/14 09:34:45;33002.00;0.11;57.78;0.00;0.00;0.62;;;;;10.10;1.00;;;;;;2233545;62;1414;-86
2021/03/14 09:37:25;142290.00;0.47;246.52;0.00;0.00;0.62;;;;;9.80;1.00;;;;;;2244211;62;1012;-86
2021/03/14 09:40:06;284207.00;0.95;490.77;0.00;0.00;0.62;;;;;9.40;1.00;;;;;;2242587;62;999;-86
2021/03/14 09:42:34;13012.00;0.04;23.17;0.00;0.00;0.62;;;;;10.30;1.00;;;;;;2248166;62;960;-86
2021/03/14 09:45:11;292278.00;0.97;504.65;82170.00;0.27;142.79;;;;;10.30;1.00;;;;;;2252076;61;2001;-87
2021/03/14 09:47:58;402980.00;1.34;694.93;82130.00;0.27;142.72;;;;;10.40;1.00;;;;;;2268212;61;1133;-86
2021/03/14 09:50:25;117548.00;0.39;203.85;0.00;0.00;0.62;;;;;10.00;1.00;;;;;;2273097;61;1045;-87
2021/03/14 09:52:52;120295.00;0.40;208.59;0.00;0.00;0.62;;;;;10.30;1.00;;;;;;2272871;61;1025;-86
2021/03/14 09:55:26;157748.00;0.53;273.16;0.00;0.00;0.62;;;;;10.00;1.00;;;;;;2276754;61;1331;-86
2021/03/14 09:57:53;90288.00;0.30;156.80;0.00;0.00;0.62;;;;;10.20;1.00;;;;;;2276206;61;1124;-86
2021/03/14 10:00:26;302972.00;1.01;523.03;0.00;0.00;0.62;;;;;10.50;1.00;;;;;;2269420;61;1074;-86
2021/03/14 10:02:53;29477.00;0.10;51.68;0.00;0.00;0.62;;;;;10.60;1.00;;;;;;2269571;61;1076;-87
2021/03/14 10:05:19;82603.00;0.28;143.53;0.00;0.00;0.62;;;;;10.60;1.00;;;;;;2272089;61;1919;-88
2021/03/14 10:07:51;142101.00;0.47;246.19;0.00;0.00;0.62;;;;;10.60;1.00;;;;;;2272001;61;1779;-86
2021/03/14 10:10:19;171221.00;0.57;296.37;0.00;0.00;0.62;;;;;10.70;1.00;;;;;;2272260;61;954;-87
2021/03/14 10:12:46;43915.00;0.15;76.66;0.00;0.00;0.62;;;;;10.60;1.00;;;;;;2272095;61;1029;-87
2021/03/14 10:15:16;56243.00;0.19;97.98;0.00;0.00;0.62;;;;;10.90;1.00;;;;;;2272143;61;1481;-86
2021/03/14 10:17:45;28016.00;0.09;49.15;0.00;0.00;0.62;;;;;11.60;1.00;;;;;;2268048;61;937;-86
2021/03/14 10:20:13;62445.00;0.21;108.70;0.00;0.00;0.62;;;;;11.50;1.00;;;;;;2268173;61;996;-85
2021/03/14 10:22:40;202470.00;0.67;350.18;69282.00;0.23;120.52;;;;;11.60;1.00;;;;;;2268884;61;1041;-87
2021/03/14 10:25:23;130896.00;0.44;226.87;14197.00;0.05;25.22;;;;;11.10;1.00;;;;;;2265312;61;2016;-86
2021/03/14 10:27:51;20334.00;0.07;35.85;0.00;0.00;0.62;;;;;11.00;1.00;;;;;;2271985;61;953;-88
2021/03/14 10:30:20;0.00;0.00;0.62;0.00;0.00;0.62;;;;;11.10;1.00;;;;;;2268637;61;1008;-87
2021/03/14 10:32:48;71148.00;0.24;123.74;0.00;0.00;0.62;;;;;11.10;1.00;;;;;;2268590;61;981;-88
2021/03/14 10:35:15;11859.00;0.04;21.17;0.00;0.00;0.62;;;;;11.20;1.00;;;;;;2266069;61;1341;-87
2021/03/14 10:37:42;68343.00;0.23;118.90;0.00;0.00;0.62;;;;;11.30;1.00;;;;;;2272766;61;954;-88
2021/03/14 10:40:11;35874.00;0.12;62.75;0.00;0.00;0.62;;;;;11.00;1.00;;;;;;2276515;61;1005;-89
2021/03/14 10:42:40;80860.00;0.27;140.52;0.00;0.00;0.62;;;;;10.90;1.00;;;;;;2272798;61;1030;-88